ePrivacy and GPDR Cookie Consent by Cookie Consent
EmailTwitter


Surface observations / France / LFBO (07630)

Regions: Quebec | Canada | USA | Europe | France | UK | Elsewhere
Station
Display
Info & Location for LFBO (07630) | Help decoding METAR

Weather Conditions observed on 2021/07/28 at 20:30 UTC at TOULOUSE/BLAGNAC, FR (LFBO)

Temperature: 22.0 Celsius.

Dewpoint: 16.0 Celsius.

Relative Humidity: 69%

Humidex 27.

Winds: Northwest at 9 km/h or 5 knots.

Mean Sea level Pressure: 101.80 kilopascals.

Coded METAR:

LFBO 282030Z AUTO 31005KT CAVOK 22/16 Q1018 NOSIG=